Terminal Aerodrome Forecast
Issued by NWS

Home | Current Version | Previous Version | Text Only | Print | Product List | Glossary On
Versions: 1 2 3 4 5 6 7 8 9 10 11 12 13 14 15 16
467
FTUS43 KAPX 231120
TAFMBL
TAF
KMBL 231120Z 2312/2412 VRB03KT P6SM BKN120
     FM231500 18007KT P6SM BKN090
     FM231700 17011G19KT P6SM BKN080
     FM240000 15008KT P6SM OVC070
     FM240200 16009KT P6SM OVC060 WS020/19035KT
     FM240500 17010G18KT 6SM -RA OVC035 WS020/22035KT
     FM241000 19008KT 4SM -RA OVC015 WS020/22035KT=

USA.gov is the U.S. government's official web portal to all federal, state and local government web resources and services.